• Join FlightAware (Why Join?)
  • Login
  • US Flag 
Rudolph Flight #1: Arrived! 
10:04AM EST


 

Airport Tracker/Info


-or-


 

Live Flight TrackerFlight Track Log ✈ DAL268 ✈ 18-Jun-2013 ✈ KSFO - KJFK

Flight Track Log - Related Links

Times and Time Zones

All times are in EDT time to prevent confusion due to time zone crossing. See the DAL268 flight status page for this flight to view local times or setup timezone preferences in your user account.

Time Position Orientation Groundspeed Altitude Reporting Facility
EDT Latitude Longitude Course Direction KTS MPH feet Rate Location/Type
02:39PM 37.6130 -122.3790 North 19 22  Level FlightAware
02:41PM 37.6130 -122.3750 90° East 33 38  Level FlightAware
02:41PM 37.6140 -122.3740 38° Northeast 32 37  Level FlightAware
02:41PM 37.6150 -122.3740 360° North 31 36  Level FlightAware
02:46PM 37.6140 -122.3680 111° Southeast 10 12  Level FlightAware
02:48PM 37.6130 -122.3670 142° Southeast 10 12  Level FlightAware
02:48PM 37.6130 -122.3660 90° East 2 2  Level FlightAware
02:54PM 37.7429 -122.1808 58° Northeast  Level FlightAware Approximate
03:02PM 37.6130 -122.3580 24° Northeast 17 20  Level FlightAware
03:02PM 37.6130 -122.3570 90° East 25 29 120 Level FlightAware
03:03PM 37.6150 -122.3610 302° West 61 70 180 Level FlightAware
03:03PM 37.6247 -122.3840 297° West 160 184 200 780 Climbing FlightAware ADS-B
03:03PM 37.6272 -122.3890 302° West 161 185 500 3,000 Climbing FlightAware ADS-B
03:04PM 37.6291 -122.3910 320° Northwest 161 185 700 3,000 Climbing FlightAware ADS-B
03:04PM 37.6314 -122.3940 314° West 162 186 900 3,420 Climbing FlightAware ADS-B
03:04PM 37.6337 -122.3950 341° North 163 188 1,100 3,000 Climbing FlightAware ADS-B
03:04PM 37.6375 -122.3970 337° Northwest 166 191 1,300 2,220 Climbing FlightAware ADS-B
03:04PM 37.6398 -122.3970 360° North 168 193 1,400 2,460 Climbing FlightAware ADS-B
03:04PM 37.6463 -122.3960 North 173 199 1,800 3,000 Climbing FlightAware ADS-B
03:04PM 37.6490 -122.3950 16° North 177 204 2,000 2,520 Climbing FlightAware ADS-B
03:04PM 37.6519 -122.3930 29° Northeast 183 211 2,100 1,620 Climbing FlightAware ADS-B
03:04PM 37.6565 -122.3870 46° Northeast 192 221 2,300 2,160 Climbing FlightAware ADS-B
03:04PM 37.6583 -122.3840 53° Northeast 194 223 2,500 3,120 Climbing FlightAware ADS-B
03:04PM 37.6647 -122.3710 58° Northeast 197 227 3,200 2,520 Climbing FlightAware ADS-B
03:05PM 37.6708 -122.3560 63° Northeast 203 234 3,700 1,560 Climbing FlightAware ADS-B
03:05PM 37.6783 -122.3390 61° Northeast 223 257 4,000 1,320 Climbing FlightAware ADS-B
03:05PM 37.6886 -122.3140 62° Northeast 248 285 4,500 1,800 Climbing FlightAware ADS-B
03:06PM 37.7008 -122.2840 63° Northeast 267 307 5,300 2,040 Climbing FlightAware ADS-B
03:06PM 37.7101 -122.2610 63° Northeast 283 326 5,800 2,820 Climbing FlightAware ADS-B
03:06PM 37.7223 -122.2320 62° Northeast 283 326 7,000 3,420 Climbing FlightAware ADS-B
03:06PM 37.7271 -122.2190 65° Northeast 284 327 7,400 2,400 Climbing FlightAware ADS-B
03:07PM 37.7363 -122.1890 69° East 299 344 8,100 2,460 Climbing FlightAware ADS-B
03:07PM 37.7433 -122.1640 70° East 303 349 8,800 2,760 Climbing FlightAware ADS-B
03:07PM 37.7514 -122.1350 71° East 304 350 9,600 2,160 Climbing FlightAware ADS-B
03:08PM 37.7667 -122.0840 69° East 324 373 10,500 1,440 Climbing FlightAware ADS-B
03:08PM 37.7837 -122.0260 70° East 363 418 11,100 1,140 Climbing FlightAware ADS-B
03:09PM 37.8024 -121.9610 70° East 393 452 11,700 1,560 Climbing FlightAware ADS-B
03:09PM 37.8216 -121.8940 70° East 407 468 12,700 2,160 Climbing FlightAware ADS-B
03:10PM 37.8412 -121.8260 70° East 416 479 13,900 1,980 Climbing FlightAware ADS-B
03:10PM 37.8614 -121.7560 70° East 431 496 14,700 1,920 Climbing FlightAware ADS-B
03:11PM 37.8824 -121.6830 70° East 438 504 15,900 2,220 Climbing FlightAware ADS-B
03:11PM 37.8853 -121.6710 73° East 439 505 16,000 1,680 Climbing FlightAware ADS-B
03:11PM 37.9003 -121.5960 76° East 448 516 16,900 1,920 Climbing FlightAware ADS-B
03:12PM 37.9152 -121.5150 77° East 455 524 18,000 1,920 Climbing FlightAware ADS-B
03:13PM 37.9400 -121.3890 76° East 461 531 19,500 1,800 Climbing FlightAware ADS-B
03:13PM 37.9590 -121.2960 75° East 474 545 20,500 1,680 Climbing FlightAware ADS-B
03:14PM 37.9870 -121.1570 76° East 484 557 22,000 1,500 Climbing FlightAware
03:15PM 38.0020 -121.0840 75° East 491 565 22,600 1,500 Climbing FlightAware
03:15PM 38.0270 -120.9590 76° East 498 573 23,800 1,500 Climbing FlightAware
03:16PM 38.0460 -120.8560 77° East 505 581 24,600 1,200 Climbing FlightAware
03:17PM 38.0660 -120.7500 76° East 513 590 25,300 1,260 Climbing FlightAware
03:17PM 38.0890 -120.6310 76° East 521 600 26,200 1,260 Climbing FlightAware
03:18PM 38.1060 -120.5350 77° East 525 604 26,900 1,440 Climbing FlightAware
03:18PM 38.1300 -120.4070 77° East 526 605 28,000 1,920 Climbing FlightAware
03:19PM 38.1540 -120.2760 77° East 512 589 29,600 1,380 Climbing FlightAware
03:21PM 38.2010 -120.0220 77° East 527 606 31,000 960 Climbing FlightAware
03:21PM 38.2220 -119.9030 77° East 532 612 31,600 1,260 Climbing FlightAware
03:22PM 38.2440 -119.7800 77° East 524 603 32,700 1,500 Climbing FlightAware
03:23PM 38.2680 -119.6490 77° East 519 597 33,700 1,260 Climbing FlightAware
03:23PM 38.2890 -119.5310 77° East 517 595 34,500 1,200 Climbing FlightAware
03:24PM 38.3130 -119.3930 77° East 514 592 35,500 840 Climbing FlightAware
03:25PM 38.3340 -119.2750 77° East 520 598 35,700 180 Climbing FlightAware
03:26PM 38.3420 -119.2280 78° East 524 603 35,800 840 Climbing FlightAware
03:26PM 38.3800 -119.0040 78° East 520 598 37,000 840 Climbing FlightAware
03:27PM 38.4030 -118.8750 77° East 516 594 37,000  Level FlightAware
03:28PM 38.4200 -118.7710 78° East 515 593 37,000  Level FlightAware
03:28PM 38.4400 -118.6550 78° East 514 592 37,000  Level FlightAware
03:29PM 38.4680 -118.4880 78° East 516 594 37,000  Level FlightAware
03:30PM 38.4860 -118.3800 78° East 519 597 37,000  Level FlightAware
03:31PM 38.5100 -118.2320 78° East 518 596 37,000  Level FlightAware
03:31PM 38.5300 -118.1110 78° East 516 594 37,000  Level FlightAware
03:32PM 38.5510 -117.9830 78° East 515 593 37,000  Level FlightAware
03:33PM 38.5670 -117.8870 78° East 515 593 37,000  Level FlightAware
03:34PM 38.5930 -117.7320 78° East 515 593 37,000  Level FlightAware
03:34PM 38.6030 -117.6690 78° East 515 593 37,000  Level FlightAware
03:35PM 38.6230 -117.5470 78° East 515 593 37,000  Level FlightAware
03:36PM 38.6480 -117.3970 78° East 515 593 37,000  Level FlightAware
03:36PM 38.6640 -117.3030 78° East 515 593 37,000  Level FlightAware
03:37PM 38.6780 -117.2170 78° East 515 593 37,000  Level FlightAware
03:38PM 38.6930 -117.1260 78° East 515 593 37,000  Level FlightAware
03:38PM 38.7140 -117.0010 78° East 515 593 37,000  Level FlightAware
03:39PM 38.7290 -116.9100 78° East 515 593 37,000  Level FlightAware
03:40PM 38.7480 -116.7930 78° East 515 593 37,000  Level FlightAware
03:40PM 38.7630 -116.7020 78° East 515 593 37,000  Level FlightAware
03:41PM 38.7810 -116.5980 77° East 515 593 37,000  Level FlightAware
03:42PM 38.8010 -116.4760 78° East 515 593 37,000  Level FlightAware
03:42PM 38.8369 -116.1147 78° East 522 601 37,000  Level Salt Lake Center
03:43PM 38.8631 -115.9328 80° East 519 597 37,000  Level Salt Lake Center
03:44PM 38.8894 -115.7494 79° East 522 601 37,000  Level Salt Lake Center
03:46PM 38.9150 -115.5653 80° East 523 602 37,000  Level Salt Lake Center
03:47PM 38.9417 -115.3747 80° East 518 596 37,000  Level Salt Lake Center
03:48PM 38.9686 -115.1917 79° East 525 604 37,000  Level Salt Lake Center
03:49PM 38.9925 -115.0106 80° East 518 596 37,000  Level Salt Lake Center
03:50PM 39.0214 -114.7958 80° East 511 588 37,000  Level Salt Lake Center
03:51PM 39.0456 -114.6158 80° East 511 588 37,000  Level Salt Lake Center
03:52PM 39.0683 -114.4386 81° East 504 580 37,000  Level Salt Lake Center
03:53PM 39.0917 -114.2600 80° East 505 581 37,000  Level Salt Lake Center
03:54PM 39.1150 -114.0803 80° East 508 585 37,000  Level Salt Lake Center
03:55PM 39.1378 -113.8981 81° East 513 590 37,000  Level Salt Lake Center
03:56PM 39.1600 -113.7175 81° East 512 589 37,000  Level Salt Lake Center
03:57PM 39.1819 -113.5361 81° East 511 588 37,000  Level Salt Lake Center
03:58PM 39.2086 -113.3169 81° East 514 592 37,000  Level Salt Lake Center
03:59PM 39.2297 -113.1358 81° East 512 589 37,000  Level Salt Lake Center
04:00PM 39.2517 -112.9519 81° East 516 594 37,000  Level Salt Lake Center
04:01PM 39.2725 -112.7711 81° East 512 589 37,000  Level Salt Lake Center
04:02PM 39.2936 -112.5914 81° East 509 586 37,000  Level Salt Lake Center
04:03PM 39.3406 -112.4197 70° East 514 592 37,000  Level Salt Lake Center
04:09PM 39.7040 -111.4000 70° East 499 574 37,000  Level FlightAware
04:10PM 39.7440 -111.2880 65° Northeast 497 572 37,000  Level FlightAware
04:10PM 39.7800 -111.1880 65° Northeast 496 571 37,000  Level FlightAware
04:11PM 39.8250 -111.0610 65° Northeast 494 568 37,000  Level FlightAware
04:12PM 39.8680 -110.9380 65° Northeast 495 570 37,000  Level FlightAware
04:12PM 39.9010 -110.8440 65° Northeast 494 568 37,000  Level FlightAware
04:13PM 39.9440 -110.7210 65° Northeast 494 568 37,000  Level FlightAware
04:14PM 39.9860 -110.6010 65° Northeast 492 566 37,000  Level FlightAware
04:15PM 40.0220 -110.4980 65° Northeast 493 567 37,000  Level FlightAware
04:15PM 40.0620 -110.3800 66° East 491 565 37,000  Level FlightAware
04:16PM 40.1020 -110.2650 66° East 492 566 37,000  Level FlightAware
04:17PM 40.1360 -110.1650 66° East 492 566 37,000  Level FlightAware
04:17PM 40.1800 -110.0410 65° Northeast 490 564 37,000  Level FlightAware
04:18PM 40.2230 -109.9180 65° Northeast 491 565 37,000  Level FlightAware
04:19PM 40.2630 -109.8030 65° Northeast 490 564 37,000  Level FlightAware
04:20PM 40.2990 -109.6980 66° East 487 560 37,000  Level FlightAware
04:20PM 40.3370 -109.5880 66° East 486 559 37,000  Level FlightAware
04:21PM 40.3800 -109.4650 65° Northeast 485 558 37,000  Level FlightAware
04:22PM 40.4210 -109.3470 65° Northeast 484 557 37,000  Level FlightAware
04:22PM 40.4600 -109.2370 65° Northeast 483 556 37,000  Level FlightAware
04:23PM 40.4990 -109.1240 66° East 483 556 37,000  Level FlightAware
04:24PM 40.5330 -109.0300 65° Northeast 483 556 37,000  Level FlightAware
04:25PM 40.5780 -108.9020 65° Northeast 483 556 37,000  Level FlightAware
04:25PM 40.5980 -108.8350 69° East 483 556 37,000  Level FlightAware
04:26PM 40.6380 -108.6760 72° East 482 555 37,000  Level FlightAware
04:27PM 40.6710 -108.5350 73° East 483 556 37,000  Level FlightAware
04:27PM 40.6960 -108.4280 73° East 482 555 37,000  Level FlightAware
04:28PM 40.7240 -108.3050 73° East 483 556 37,000  Level FlightAware
04:29PM 40.7500 -108.1900 73° East 485 558 37,000  Level FlightAware
04:29PM 40.7790 -108.0630 73° East 486 559 37,000  Level FlightAware
04:30PM 40.8010 -107.9650 73° East 486 559 37,000  Level FlightAware
04:31PM 40.8310 -107.8270 74° East 486 559 37,000  Level FlightAware
04:32PM 40.8570 -107.7140 73° East 487 560 37,000  Level FlightAware
04:32PM 40.8850 -107.5870 74° East 487 560 37,000  Level FlightAware
04:33PM 40.9080 -107.4820 74° East 487 560 37,000  Level FlightAware
04:34PM 40.9330 -107.3660 74° East 487 560 37,000  Level FlightAware
04:34PM 40.9630 -107.2310 74° East 487 560 37,000  Level FlightAware
04:35PM 40.9680 -107.2090 73° East 487 560 37,000  Level FlightAware
04:36PM 41.0070 -107.0280 74° East 484 557 37,000  Level FlightAware
04:36PM 41.0370 -106.8910 74° East 485 558 37,000  Level FlightAware
04:37PM 41.0620 -106.7740 74° East 486 559 37,000  Level FlightAware
04:38PM 41.0860 -106.6580 75° East 486 559 37,000  Level FlightAware
04:38PM 41.1140 -106.5260 74° East 486 559 37,000  Level FlightAware
04:39PM 41.1380 -106.4130 74° East 485 558 37,000  Level FlightAware
04:40PM 41.1640 -106.2910 74° East 484 557 37,000  Level FlightAware
04:40PM 41.1830 -106.1980 75° East 484 557 37,000  Level FlightAware
04:41PM 41.2080 -106.0790 74° East 482 555 37,000  Level FlightAware
04:42PM 41.2350 -105.9470 75° East 481 554 37,000  Level FlightAware
04:43PM 41.2590 -105.8310 75° East 483 556 37,000  Level FlightAware
04:43PM 41.2850 -105.7010 75° East 483 556 37,000  Level FlightAware
04:44PM 41.3020 -105.6170 75° East 483 556 37,000  Level FlightAware
04:45PM 41.3330 -105.4660 75° East 481 554 37,000  Level FlightAware
04:46PM 41.3630 -105.3160 75° East 480 552 37,000  Level FlightAware
04:46PM 41.3890 -105.1830 75° East 482 555 37,000  Level FlightAware
04:47PM 41.4049 -105.1030 75° East 485 558 37,000  Level FlightAware ADS-B
04:47PM 41.4222 -105.0150 75° East 486 559 37,000  Level FlightAware ADS-B
04:48PM 41.4393 -104.9280 75° East 485 558 37,000  Level FlightAware ADS-B
04:48PM 41.4576 -104.8340 75° East 486 559 37,000  Level FlightAware ADS-B
04:49PM 41.4746 -104.7460 76° East 484 557 37,000  Level FlightAware ADS-B
04:49PM 41.4922 -104.6560 75° East 484 557 37,000  Level FlightAware ADS-B
04:50PM 41.5089 -104.5690 76° East 484 557 37,000  Level FlightAware ADS-B
04:50PM 41.5256 -104.4820 76° East 484 557 37,000 60 Level FlightAware ADS-B
04:51PM 41.5424 -104.3930 76° East 483 556 37,100 540 Climbing FlightAware ADS-B
04:51PM 41.5618 -104.2910 76° East 481 554 37,600 900 Climbing FlightAware ADS-B
04:52PM 41.5782 -104.2040 76° East 480 552 38,100 780 Climbing FlightAware ADS-B
04:52PM 41.5945 -104.1170 76° East 480 552 38,400 540 Climbing FlightAware ADS-B
04:53PM 41.6109 -104.0300 76° East 482 555 38,700 480 Climbing FlightAware ADS-B
04:53PM 41.6275 -103.9410 76° East 485 558 38,900 240 Climbing FlightAware ADS-B
04:54PM 41.6436 -103.8540 76° East 485 558 39,000 60 Climbing FlightAware ADS-B
04:54PM 41.6597 -103.7660 76° East 483 556 39,000  Level FlightAware ADS-B
04:55PM 41.6758 -103.6790 76° East 482 555 39,000  Level FlightAware ADS-B
04:55PM 41.6916 -103.5920 76° East 483 556 39,000  Level FlightAware ADS-B
04:56PM 41.7111 -103.4850 76° East 483 556 39,000  Level FlightAware ADS-B
04:57PM 41.7268 -103.3980 76° East 483 556 39,000  Level FlightAware ADS-B
04:57PM 41.7433 -103.3060 76° East 482 555 39,000  Level FlightAware ADS-B
04:58PM 41.7600 -103.2130 76° East 483 556 39,000  Level FlightAware ADS-B
04:58PM 41.7787 -103.1080 77° East 484 557 39,000  Level FlightAware ADS-B
04:59PM 41.7945 -103.0190 77° East 485 558 39,000  Level FlightAware ADS-B
04:59PM 41.8121 -102.9190 77° East 485 558 39,000  Level FlightAware ADS-B
05:00PM 41.8283 -102.8270 77° East 486 559 39,000  Level FlightAware ADS-B
05:00PM 41.8445 -102.7340 77° East 487 560 39,000  Level FlightAware ADS-B
05:01PM 41.8598 -102.6460 77° East 488 562 39,000  Level FlightAware ADS-B
05:02PM 41.8814 -102.5200 77° East 488 562 39,000  Level FlightAware ADS-B
05:02PM 41.9006 -102.4080 77° East 487 560 39,000  Level FlightAware ADS-B
05:03PM 41.9175 -102.3090 77° East 487 560 39,000  Level FlightAware ADS-B
05:04PM 41.9404 -102.1740 77° East 486 559 39,000  Level FlightAware ADS-B
05:04PM 41.9556 -102.0830 77° East 486 559 39,000  Level FlightAware ADS-B
05:05PM 41.9712 -101.9900 77° East 485 558 39,000  Level FlightAware ADS-B
05:05PM 41.9869 -101.8960 77° East 484 557 39,000  Level FlightAware ADS-B
05:06PM 42.0120 -101.7440 77° East 481 554 39,000  Level FlightAware ADS-B
05:07PM 42.0267 -101.6540 78° East 480 552 39,000  Level FlightAware ADS-B
05:07PM 42.0527 -101.4940 78° East 477 549 39,000  Level FlightAware ADS-B
05:08PM 42.0639 -101.4214 78° East 478 550 39,000  Level Minneapolis Center
05:09PM 42.0928 -101.2458 77° East 471 542 39,000  Level Denver Center
05:10PM 42.1150 -101.1069 78° East 473 544 39,000  Level Denver Center
05:11PM 42.1494 -100.8861 78° East 472 543 39,000  Level Denver Center
05:12PM 42.1756 -100.7197 78° East 472 543 39,000  Level Denver Center
05:13PM 42.2053 -100.5256 78° East 473 544 39,000  Level Denver Center
05:14PM 42.2308 -100.3583 78° East 475 547 39,000  Level Denver Center
05:15PM 42.2558 -100.1908 79° East 475 547 39,000  Level Denver Center
05:16PM 42.2861 -99.9933 78° East 478 550 39,000  Level Denver Center
05:17PM 42.3106 -99.8219 79° East 483 556 39,000  Level Denver Center
05:18PM 42.3378 -99.6353 79° East 479 551 39,000  Level Denver Center
05:19PM 42.3631 -99.4572 79° East 480 552 39,000  Level Denver Center
05:21PM 42.3933 -99.2472 79° East 478 550 39,000  Level Minneapolis Center
05:22PM 42.4186 -99.0706 79° East 477 549 39,000  Level Minneapolis Center
05:23PM 42.4431 -98.8925 79° East 480 552 39,000  Level Minneapolis Center
05:24PM 42.4722 -98.6794 79° East 480 552 39,000  Level Minneapolis Center
05:25PM 42.4817 -98.5008 86° East 476 548 39,000  Level Minneapolis Center
05:26PM 42.4886 -98.3197 87° East 480 552 39,000  Level Minneapolis Center
05:32PM 42.5350 -97.2630 87° East 477 549 39,000  Level FlightAware
05:32PM 42.5390 -97.1380 87° East 477 549 39,000  Level FlightAware
05:33PM 42.5440 -97.0070 87° East 477 549 39,000  Level FlightAware
05:34PM 42.5480 -96.8890 87° East 476 548 39,000  Level FlightAware
05:34PM 42.5530 -96.7660 87° East 476 548 39,000  Level FlightAware
05:35PM 42.5570 -96.6290 88° East 476 548 39,000  Level FlightAware
05:36PM 42.5610 -96.5100 87° East 477 549 39,000  Level FlightAware
05:36PM 42.5650 -96.3900 87° East 477 549 39,000  Level FlightAware
05:37PM 42.5690 -96.2610 88° East 477 549 39,000  Level FlightAware
05:38PM 42.5730 -96.1400 87° East 478 550 39,000  Level FlightAware
05:39PM 42.5760 -96.0100 88° East 478 550 39,000  Level FlightAware
05:39PM 42.5800 -95.8810 88° East 479 551 39,000  Level FlightAware
05:40PM 42.5830 -95.7490 88° East 479 551 39,000  Level FlightAware
05:41PM 42.5860 -95.6290 88° East 479 551 39,000  Level FlightAware
05:41PM 42.5890 -95.5120 88° East 479 551 39,000  Level FlightAware
05:42PM 42.5920 -95.3810 88° East 479 551 39,000  Level FlightAware
05:43PM 42.5950 -95.2470 88° East 478 550 39,000  Level FlightAware
05:43PM 42.5970 -95.1260 89° East 479 551 39,000  Level FlightAware
05:44PM 42.6000 -95.0020 88° East 478 550 39,000  Level FlightAware
05:45PM 42.6020 -94.8820 89° East 477 549 39,000  Level FlightAware
05:46PM 42.6040 -94.7540 89° East 476 548 39,000  Level FlightAware
05:46PM 42.6060 -94.6200 89° East 474 545 39,000  Level FlightAware
05:47PM 42.6080 -94.5110 89° East 473 544 39,000  Level FlightAware
05:48PM 42.6100 -94.3760 89° East 472 543 39,000  Level FlightAware
05:48PM 42.6120 -94.2530 89° East 471 542 39,000  Level FlightAware
05:49PM 42.6130 -94.1250 89° East 471 542 39,000  Level FlightAware
05:50PM 42.6140 -94.0040 89° East 470 541 39,000  Level FlightAware
05:51PM 42.6140 -93.9580 90° East 470 541 39,000  Level FlightAware
05:52PM 42.6160 -93.6060 89° East 471 542 39,000  Level FlightAware
05:53PM 42.6160 -93.4780 90° East 471 542 39,000  Level FlightAware
05:53PM 42.6170 -93.3570 89° East 472 543 39,000  Level FlightAware
05:54PM 42.6170 -93.2470 90° East 474 545 39,000  Level FlightAware
05:55PM 42.6170 -93.1090 90° East 475 547 39,000  Level FlightAware
05:55PM 42.6170 -92.9840 90° East 477 549 39,000  Level FlightAware
05:56PM 42.6160 -92.8580 91° East 479 551 39,000  Level FlightAware
05:57PM 42.6160 -92.7290 90° East 481 554 39,000  Level FlightAware
05:58PM 42.6150 -92.6110 91° East 482 555 39,000  Level FlightAware
05:58PM 42.6150 -92.4800 90° East 483 556 39,000  Level FlightAware
05:59PM 42.6140 -92.3430 91° East 485 558 39,000  Level FlightAware
06:00PM 42.6130 -92.2270 91° East 487 560 39,000  Level FlightAware
06:01PM 42.6110 -92.0190 91° East 490 564 39,000  Level FlightAware
06:02PM 42.6090 -91.8760 91° East 493 567 39,000  Level FlightAware
06:02PM 42.6080 -91.7480 91° East 495 570 39,000  Level FlightAware
06:03PM 42.6060 -91.6250 91° East 497 572 39,000  Level FlightAware
06:04PM 42.6040 -91.4860 91° East 499 574 39,000  Level FlightAware
06:04PM 42.6030 -91.3740 91° East 501 577 39,000  Level FlightAware
06:05PM 42.6000 -91.1910 91° East 503 579 39,000  Level FlightAware
06:06PM 42.5970 -91.0540 92° East 506 582 39,000  Level FlightAware
06:07PM 42.5940 -90.9120 92° East 508 585 39,000  Level FlightAware
06:07PM 42.5920 -90.7930 91° East 509 586 39,000  Level FlightAware
06:08PM 42.5890 -90.6480 92° East 509 586 39,000  Level FlightAware
06:09PM 42.5860 -90.5180 92° East 509 586 39,000  Level FlightAware
06:09PM 42.5830 -90.3800 92° East 508 585 39,000  Level FlightAware
06:10PM 42.5790 -90.2430 92° East 506 582 39,000  Level FlightAware
06:11PM 42.5750 -90.0830 92° East 503 579 39,000  Level FlightAware
06:12PM 42.5720 -89.9530 92° East 500 575 39,000  Level FlightAware
06:12PM 42.5680 -89.8150 92° East 496 571 39,000  Level FlightAware
06:13PM 42.5640 -89.6910 92° East 494 568 39,000  Level FlightAware
06:14PM 42.5600 -89.5600 92° East 491 565 39,000  Level FlightAware
06:15PM 42.5550 -89.3980 92° East 488 562 39,000  Level FlightAware
06:15PM 42.5500 -89.2670 93° East 487 560 39,000  Level FlightAware
06:16PM 42.5460 -89.1300 92° East 489 563 39,000  Level FlightAware
06:17PM 42.5410 -89.0140 93° East 492 566 39,000  Level FlightAware
06:18PM 42.5360 -88.8700 93° East 497 572 39,000  Level FlightAware
06:18PM 42.5310 -88.7450 93° East 500 575 39,000  Level FlightAware
06:19PM 42.5260 -88.6060 93° East 505 581 39,000  Level FlightAware
06:20PM 42.5210 -88.4800 93° East 509 586 39,000  Level FlightAware
06:20PM 42.5150 -88.3480 93° East 512 589 39,000  Level FlightAware
06:21PM 42.5090 -88.2090 93° East 514 592 39,000  Level FlightAware
06:22PM 42.5030 -88.0740 93° East 516 594 39,000  Level FlightAware
06:23PM 42.5000 -87.9380 92° East 518 596 39,000  Level FlightAware
06:23PM 42.5000 -87.8140 90° East 518 596 39,000  Level FlightAware
06:24PM 42.5000 -87.6710 90° East 518 596 39,000  Level FlightAware
06:25PM 42.4990 -87.5470 91° East 517 595 39,000  Level FlightAware
06:25PM 42.4990 -87.3920 90° East 517 595 39,000  Level FlightAware
06:26PM 42.4980 -87.2650 91° East 517 595 39,000  Level FlightAware
06:27PM 42.4970 -87.1220 90° East 518 596 39,000  Level FlightAware
06:27PM 42.4960 -86.9910 91° East 518 596 39,000  Level FlightAware
06:28PM 42.4950 -86.8610 91° East 518 596 39,000  Level FlightAware
06:29PM 42.4930 -86.7200 91° East 518 596 39,000  Level FlightAware
06:29PM 42.4920 -86.5890 91° East 517 595 39,000  Level FlightAware
06:30PM 42.4900 -86.4430 91° East 516 594 39,000  Level FlightAware
06:31PM 42.4880 -86.3190 91° East 515 593 39,000  Level FlightAware
06:32PM 42.4860 -86.1710 91° East 514 592 39,000  Level FlightAware
06:32PM 42.4840 -86.0450 91° East 514 592 39,000  Level FlightAware
06:33PM 42.4820 -85.9220 91° East 513 590 39,000  Level FlightAware
06:34PM 42.4790 -85.7670 91° East 512 589 39,000  Level FlightAware
06:34PM 42.4770 -85.6530 91° East 511 588 39,000  Level FlightAware
06:35PM 42.4740 -85.5050 92° East 510 587 39,000  Level FlightAware
06:36PM 42.4710 -85.3810 92° East 509 586 39,000  Level FlightAware
06:36PM 42.4680 -85.2440 92° East 507 583 39,000  Level FlightAware
06:37PM 42.4640 -85.1080 92° East 506 582 39,000  Level FlightAware
06:38PM 42.4610 -84.9760 92° East 505 581 39,000  Level FlightAware
06:39PM 42.4540 -84.8360 94° East 505 581 39,000  Level FlightAware
06:39PM 42.4470 -84.7110 94° East 504 580 39,000  Level FlightAware
06:41PM 42.4390 -84.5780 95° East 504 580 39,000  Level FlightAware
06:41PM 42.4240 -84.3130 94° East 503 579 39,000  Level FlightAware
06:42PM 42.4180 -84.1960 94° East 503 579 39,000  Level FlightAware
06:43PM 42.4090 -84.0530 95° East 503 579 39,000  Level FlightAware
06:44PM 42.4010 -83.9200 95° East 502 578 39,000  Level FlightAware
06:44PM 42.3930 -83.7910 95° East 502 578 39,000  Level FlightAware
06:45PM 42.3850 -83.6660 95° East 501 577 39,000  Level FlightAware
06:46PM 42.3770 -83.5350 95° East 501 577 39,000  Level FlightAware
06:46PM 42.3680 -83.4030 95° East 500 575 39,000  Level FlightAware
06:47PM 42.3610 -83.2950 95° East 500 575 39,000  Level FlightAware
06:48PM 42.3500 -83.1290 95° East 500 575 39,000  Level FlightAware
06:48PM 42.3410 -83.0070 96° East 500 575 39,000  Level FlightAware
06:49PM 42.3330 -82.8830 95° East 500 575 39,000  Level FlightAware
06:50PM 42.3210 -82.7170 96° East 499 574 39,000  Level FlightAware
06:51PM 42.3100 -82.5690 96° East 499 574 39,000  Level FlightAware
06:51PM 42.3000 -82.4360 96° East 500 575 39,000  Level FlightAware
06:52PM 42.2910 -82.3180 96° East 499 574 39,000  Level FlightAware
06:53PM 42.2820 -82.1890 95° East 500 575 39,000  Level FlightAware
06:54PM 42.2710 -82.0580 96° East 499 574 39,000  Level FlightAware
06:54PM 42.2620 -81.9320 95° East 499 574 39,000  Level FlightAware
06:55PM 42.2510 -81.7990 96° East 499 574 39,000  Level FlightAware
06:56PM 42.2400 -81.6600 96° East 499 574 39,000  Level FlightAware
06:56PM 42.2300 -81.5350 96° East 500 575 39,000  Level FlightAware
06:57PM 42.2190 -81.4080 97° East 501 577 39,000  Level FlightAware
06:58PM 42.2080 -81.2810 97° East 501 577 39,000  Level FlightAware
06:58PM 42.1970 -81.1440 96° East 502 578 39,000  Level FlightAware
06:59PM 42.1850 -81.0090 97° East 502 578 39,000  Level FlightAware
07:00PM 42.1750 -80.8950 97° East 503 579 39,000  Level FlightAware
07:00PM 42.1630 -80.7580 97° East 503 579 39,000  Level FlightAware
07:01PM 42.1530 -80.6450 97° East 504 580 39,000  Level FlightAware
07:02PM 42.1410 -80.5160 97° East 504 580 39,000  Level FlightAware
07:03PM 42.1280 -80.3780 97° East 505 581 39,000  Level FlightAware
07:03PM 42.1170 -80.2590 97° East 505 581 39,000  Level FlightAware
07:04PM 42.1050 -80.1350 97° East 506 582 39,000  Level FlightAware
07:05PM 42.0920 -79.9910 97° East 507 583 39,000  Level FlightAware
07:05PM 42.0850 -79.9200 98° East 507 583 39,000  Level FlightAware
07:06PM 42.0650 -79.7240 98° East 507 583 39,000  Level FlightAware
07:07PM 42.0520 -79.5850 97° East 506 582 39,000  Level FlightAware
07:07PM 42.0410 -79.4810 98° East 505 581 39,000  Level FlightAware
07:08PM 42.0260 -79.3280 97° East 505 581 39,000  Level FlightAware
07:09PM 42.0120 -79.1910 98° East 505 581 39,000  Level FlightAware
07:10PM 41.9980 -79.0650 98° East 505 581 39,000  Level FlightAware
07:10PM 41.9820 -78.9110 98° East 506 582 39,000  Level FlightAware
07:11PM 41.9800 -78.8860 96° East 506 582 39,000  Level FlightAware
07:12PM 41.9580 -78.6870 98° East 505 581 39,000  Level FlightAware
07:12PM 41.9440 -78.5560 98° East 503 579 39,000  Level FlightAware
07:13PM 41.9290 -78.4200 98° East 504 580 39,000  Level FlightAware
07:14PM 41.9160 -78.3020 98° East 504 580 39,000  Level FlightAware
07:14PM 41.9000 -78.1610 99° East 502 578 39,000  Level FlightAware
07:15PM 41.8860 -78.0380 99° East 501 577 39,000  Level FlightAware
07:16PM 41.8700 -77.8970 99° East 500 575 39,000  Level FlightAware
07:16PM 41.8470 -77.7840 105° East 497 572 39,000  Level FlightAware
07:17PM 41.8220 -77.6870 109° East 495 570 39,000  Level FlightAware
07:18PM 41.7850 -77.5480 110° East 495 570 39,000  Level FlightAware
07:19PM 41.7500 -77.4180 110° East 494 568 39,000  Level FlightAware
07:19PM 41.7180 -77.2990 110° East 492 566 39,000  Level FlightAware
07:20PM 41.6910 -77.1960 109° East 490 564 39,000  Level FlightAware
07:20PM 41.6711 -77.1235 110° East 491 565 39,000  Level FlightAware ADS-B
07:21PM 41.6476 -77.0363 110° East 489 563 39,000  Level FlightAware ADS-B
07:21PM 41.6227 -76.9445 110° East 486 559 39,000  Level FlightAware ADS-B
07:22PM 41.5996 -76.8596 110° East 485 558 39,000  Level FlightAware ADS-B
07:22PM 41.5747 -76.7686 110° East 483 556 39,000  Level FlightAware ADS-B
07:23PM 41.5486 -76.6734 110° East 480 552 39,000  Level FlightAware ADS-B
07:24PM 41.5247 -76.5865 110° East 478 550 39,000  Level FlightAware ADS-B
07:24PM 41.5015 -76.5023 110° East 477 549 39,000  Level FlightAware ADS-B
07:25PM 41.4780 -76.4180 110° East 476 548 39,000  Level FlightAware ADS-B
07:25PM 41.4544 -76.3328 110° East 475 547 39,000 -120 Level FlightAware ADS-B
07:26PM 41.4312 -76.2497 110° East 474 545 38,900 -1,020 Descending FlightAware ADS-B
07:26PM 41.4076 -76.1655 110° East 475 547 38,000 -2,280 Descending FlightAware ADS-B
07:27PM 41.3808 -76.0703 111° Southeast 483 556 36,400 -2,820 Descending FlightAware ADS-B
07:27PM 41.3558 -75.9818 111° Southeast 489 563 34,900 -3,120 Descending FlightAware ADS-B
07:28PM 41.3313 -75.8949 111° Southeast 497 572 33,200 -3,480 Descending FlightAware ADS-B
07:28PM 41.3067 -75.8083 111° Southeast 504 580 31,400 -3,600 Descending FlightAware ADS-B
07:29PM 41.2810 -75.7193 111° Southeast 509 586 29,600 -3,600 Descending FlightAware ADS-B
07:29PM 41.2533 -75.6306 113° Southeast 512 589 27,800 -3,180 Descending FlightAware ADS-B
07:30PM 41.2245 -75.5433 114° Southeast 507 583 26,400 -2,700 Descending FlightAware ADS-B
07:30PM 41.1947 -75.4545 114° Southeast 499 574 25,000 -2,700 Descending FlightAware ADS-B
07:31PM 41.1650 -75.3663 114° Southeast 494 568 23,600 -1,920 Descending FlightAware ADS-B
07:31PM 41.1357 -75.2794 114° Southeast 471 542 23,000 -600 Descending FlightAware ADS-B
07:32PM 41.1100 -75.2030 114° Southeast 436 502 23,000  Level FlightAware ADS-B
07:32PM 41.0854 -75.1308 114° Southeast 406 467 23,000  Level FlightAware ADS-B
07:33PM 41.0614 -75.0607 114° Southeast 387 445 23,000  Level FlightAware ADS-B
07:33PM 41.0402 -74.9989 114° Southeast 380 437 23,000  Level FlightAware ADS-B
07:34PM 41.0165 -74.9297 114° Southeast 387 445 23,000 -180 Level FlightAware ADS-B
07:34PM 41.0078 -74.9037 114° Southeast 389 448 22,900 -360 Descending FlightAware ADS-B
07:34PM 41.0049 -74.8942 112° Southeast 388 447 22,900 -420 Level FlightAware ADS-B
07:34PM 40.9991 -74.8716 109° East 389 448 22,800 -720 Descending FlightAware ADS-B
07:35PM 40.9928 -74.8372 104° East 388 447 22,600 -720 Descending FlightAware ADS-B
07:35PM 40.9916 -74.8283 100° East 388 447 22,600 -1,500 Level FlightAware ADS-B
07:35PM 40.9838 -74.7576 98° East 389 448 21,800 -1,500 Descending FlightAware ADS-B
07:35PM 40.9783 -74.7063 98° East 387 445 21,300 -1,320 Descending FlightAware ADS-B
07:36PM 40.9758 -74.6832 98° East 385 443 21,100 -900 Descending FlightAware ADS-B
07:36PM 40.9682 -74.6128 98° East 379 436 20,700 -720 Descending FlightAware ADS-B
07:37PM 40.9601 -74.5394 98° East 377 434 20,400 -480 Descending FlightAware ADS-B
07:37PM 40.9522 -74.4682 98° East 373 429 20,200 -540 Descending FlightAware ADS-B
07:37PM 40.9473 -74.4326 100° East 371 427 20,000 -1,080 Descending FlightAware ADS-B
07:38PM 40.9370 -74.3821 105° East 372 428 19,500 -1,260 Descending FlightAware ADS-B
07:38PM 40.9310 -74.3602 110° East 371 427 19,300 -720 Descending FlightAware ADS-B
07:39PM 40.9099 -74.2937 113° Southeast 366 421 19,000 -300 Descending FlightAware ADS-B
07:39PM 40.8902 -74.2320 113° Southeast 364 419 19,000  Level FlightAware ADS-B
07:40PM 40.8701 -74.1689 113° Southeast 361 415 19,000  Level FlightAware ADS-B
07:40PM 40.8502 -74.1059 113° Southeast 360 414 19,000 -1,020 Level FlightAware ADS-B
07:41PM 40.8306 -74.0458 113° Southeast 350 403 18,000 -2,160 Descending FlightAware ADS-B
07:41PM 40.8184 -74.0073 113° Southeast 348 400 17,200 -2,340 Descending FlightAware ADS-B
07:41PM 40.8118 -73.9861 112° Southeast 345 397 16,800 -2,220 Descending FlightAware ADS-B
07:42PM 40.7938 -73.9275 112° Southeast 334 384 15,700 -2,100 Descending FlightAware ADS-B
07:42PM 40.7758 -73.8716 113° Southeast 327 376 14,700 -1,920 Descending FlightAware ADS-B
07:42PM 40.7654 -73.8408 114° Southeast 325 374 14,200 -1,560 Descending FlightAware ADS-B
07:43PM 40.7566 -73.8156 115° Southeast 322 371 13,900 -1,320 Descending FlightAware ADS-B
07:43PM 40.7361 -73.7582 115° Southeast 319 367 13,200 -1,020 Descending FlightAware ADS-B
07:44PM 40.7103 -73.7000 120° Southeast 316 364 12,800 -1,140 Descending FlightAware ADS-B
07:44PM 40.6736 -73.6775 155° Southeast 298 343 12,000 -1,920 Descending FlightAware ADS-B
07:45PM 40.6334 -73.6635 165° South 292 336 10,900 -2,400 Descending FlightAware ADS-B
07:45PM 40.6007 -73.6523 165° South 291 335 9,800 -2,580 Descending FlightAware ADS-B
07:45PM 40.5811 -73.6456 165° South 290 334 9,200 -2,340 Descending FlightAware ADS-B
07:46PM 40.5736 -73.6441 171° South 287 330 9,000 -2,340 Descending FlightAware ADS-B
07:46PM 40.5645 -73.6443 181° South 285 328 8,700 -2,760 Descending FlightAware ADS-B
07:46PM 40.5587 -73.6458 191° South 280 322 8,500 -2,400 Descending FlightAware ADS-B
07:46PM 40.5520 -73.6486 198° South 278 320 8,300 -2,400 Descending FlightAware ADS-B
07:46PM 40.5468 -73.6512 201° Southwest 278 320 8,100 -2,580 Descending FlightAware ADS-B
07:46PM 40.5296 -73.6616 205° Southwest 278 320 7,500 -2,400 Descending FlightAware ADS-B
07:46PM 40.5094 -73.6749 207° Southwest 279 321 6,800 -2,580 Descending FlightAware ADS-B
07:47PM 40.4913 -73.6872 207° Southwest 277 319 6,100 -2,460 Descending FlightAware ADS-B
07:47PM 40.4726 -73.7004 208° Southwest 275 316 5,500 -2,460 Descending FlightAware ADS-B
07:47PM 40.4556 -73.7126 209° Southwest 276 318 4,800 -2,580 Descending FlightAware ADS-B
07:48PM 40.4298 -73.7534 230° Southwest 280 322 3,500 -2,280 Descending FlightAware ADS-B
07:48PM 40.4211 -73.7777 245° Southwest 278 320 3,000 -1,500 Descending FlightAware ADS-B
07:48PM 40.4123 -73.8020 245° Southwest 265 305 2,700 -900 Descending FlightAware ADS-B
07:49PM 40.4051 -73.8365 255° West 239 275 2,400 -600 Descending FlightAware ADS-B
07:49PM 40.4051 -73.8450 270° West 231 266 2,400 -420 Level FlightAware ADS-B
07:49PM 40.4057 -73.8573 274° West 226 260 2,300 -600 Descending FlightAware ADS-B
07:49PM 40.4092 -73.8704 289° West 217 250 2,200 -540 Descending FlightAware ADS-B
07:49PM 40.4190 -73.8823 317° Northwest 205 236 2,100 -180 Descending FlightAware ADS-B
07:50PM 40.4450 -73.8870 352° North 205 236 2,100  Level FlightAware
07:51PM 40.4810 -73.8800 North 206 237 2,100  Level FlightAware
07:51PM 40.5050 -73.8650 25° Northeast 208 239 2,100  Level FlightAware
07:51PM 40.5280 -73.8460 32° Northeast 194 223 2,100 -420 Level FlightAware
07:52PM 40.5500 -73.8290 30° Northeast 177 204 1,700 -780 Descending FlightAware
07:52PM 40.5680 -73.8160 29° Northeast 154 177 1,400 -780 Descending FlightAware
07:53PM 40.5840 -73.8030 32° Northeast 132 152 1,000 -780 Descending FlightAware
07:53PM 40.5990 -73.7910 31° Northeast 134 154 700 -660 Descending FlightAware
07:54PM 40.6140 -73.7800 29° Northeast 135 155 400 -660 Descending FlightAware
07:54PM 40.6290 -73.7680 31° Northeast 138 159 100 -720 Descending FlightAware
07:55PM 40.6400 -73.7590 32° Northeast 50 58 -240 Descending FlightAware
07:55PM 40.6420 -73.7590 360° North 21 24  Level FlightAware
07:55PM 40.6430 -73.7600 323° Northwest 17 20  Level FlightAware